Portada
METAR-TAF:

METAR-TAF

Aeroports :

Waterville Robert LaFleur Airport

Waterville, Maine, Estats Units d'Amèrica

latitud: 44-32N, longitud: 069-41W, altitud: 101 m

Observació

L'informe es va fer fa 49 minuts, a les 09:56 UTC
Vent calma
Temperatura 14°C
Humitat 88%
Pressió 1011 hPa
Visibilitat: 16.1 km
Núvols disperses a una alçada de 6500 ft

METAR: KWVL 190956Z AUTO 00000KT 10SM SCT065 14/12 A2986 RMK AO2 SLP138 T01390122

Hora: 06:45 (10:45 UTC)


TAF: manca

Observacions i pronòstics meteorològics de més de 4000 aeroports (METAR i TAF).

Les estacions disponibles són els punts grocs i vermells al mapa.

Posi el ratolí al punt desitjat per veure el nom de l'estació.

Feu clic per veure les observacions i els pronòstics meteorològics.

Per canviar el mapa: feu clic els botons verds amb una creu de color negre per apropar; al botó verd amb un guió per allunyar la imatge; o en les fletxes verdes per a mapes adjacents.


METAR-TAF: